sensor_id;sensor_type;location;lat;lon;timestamp;P1;durP1;ratioP1;P2;durP2;ratioP2
70970;SDS011;58632;51.718;19.446;2022-10-16T00:01:16;12.80;;;9.00;;
70970;SDS011;58632;51.718;19.446;2022-10-16T00:03:43;14.30;;;9.50;;
70970;SDS011;58632;51.718;19.446;2022-10-16T00:06:10;13.00;;;10.00;;
70970;SDS011;58632;51.718;19.446;2022-10-16T00:08:37;12.10;;;9.40;;
70970;SDS011;58632;51.718;19.446;2022-10-16T00:11:05;11.90;;;8.40;;
70970;SDS011;58632;51.718;19.446;2022-10-16T00:13:41;14.50;;;9.30;;
70970;SDS011;58632;51.718;19.446;2022-10-16T00:16:09;14.20;;;9.60;;
70970;SDS011;58632;51.718;19.446;2022-10-16T00:18:36;15.70;;;9.40;;
70970;SDS011;58632;51.718;19.446;2022-10-16T00:21:04;11.90;;;9.50;;
70970;SDS011;58632;51.718;19.446;2022-10-16T00:23:30;14.30;;;9.60;;
70970;SDS011;58632;51.718;19.446;2022-10-16T00:28:23;12.20;;;8.90;;
70970;SDS011;58632;51.718;19.446;2022-10-16T00:30:49;11.70;;;8.60;;
70970;SDS011;58632;51.718;19.446;2022-10-16T00:33:15;11.00;;;7.80;;
70970;SDS011;58632;51.718;19.446;2022-10-16T00:35:40;14.10;;;9.70;;
70970;SDS011;58632;51.718;19.446;2022-10-16T00:38:06;14.50;;;9.30;;
70970;SDS011;58632;51.718;19.446;2022-10-16T00:40:32;14.90;;;10.30;;
70970;SDS011;58632;51.718;19.446;2022-10-16T00:42:58;15.70;;;9.70;;
70970;SDS011;58632;51.718;19.446;2022-10-16T00:45:25;12.60;;;9.30;;
70970;SDS011;58632;51.718;19.446;2022-10-16T00:47:50;13.40;;;8.40;;
70970;SDS011;58632;51.718;19.446;2022-10-16T00:50:24;11.60;;;8.80;;
70970;SDS011;58632;51.718;19.446;2022-10-16T00:52:54;13.80;;;9.30;;
70970;SDS011;58632;51.718;19.446;2022-10-16T00:55:21;16.60;;;10.80;;
70970;SDS011;58632;51.718;19.446;2022-10-16T00:57:47;11.60;;;9.90;;
70970;SDS011;58632;51.718;19.446;2022-10-16T01:02:41;15.60;;;8.90;;
70970;SDS011;58632;51.718;19.446;2022-10-16T01:05:07;13.50;;;9.30;;
70970;SDS011;58632;51.718;19.446;2022-10-16T01:10:38;14.20;;;10.70;;
70970;SDS011;58632;51.718;19.446;2022-10-16T01:16:01;11.40;;;8.70;;
70970;SDS011;58632;51.718;19.446;2022-10-16T01:18:37;14.40;;;8.80;;
70970;SDS011;58632;51.718;19.446;2022-10-16T01:21:40;11.50;;;9.30;;
70970;SDS011;58632;51.718;19.446;2022-10-16T01:29:40;16.00;;;10.90;;
70970;SDS011;58632;51.718;19.446;2022-10-16T01:32:16;13.90;;;9.90;;
70970;SDS011;58632;51.718;19.446;2022-10-16T01:35:03;15.80;;;10.90;;
70970;SDS011;58632;51.718;19.446;2022-10-16T01:37:55;14.20;;;9.90;;
70970;SDS011;58632;51.718;19.446;2022-10-16T01:40:24;15.60;;;10.80;;
70970;SDS011;58632;51.718;19.446;2022-10-16T01:42:55;14.20;;;11.10;;
70970;SDS011;58632;51.718;19.446;2022-10-16T01:45:25;17.00;;;10.60;;
70970;SDS011;58632;51.718;19.446;2022-10-16T01:47:53;14.20;;;10.40;;
70970;SDS011;58632;51.718;19.446;2022-10-16T01:50:19;11.80;;;9.00;;
70970;SDS011;58632;51.718;19.446;2022-10-16T01:52:47;11.90;;;8.90;;
70970;SDS011;58632;51.718;19.446;2022-10-16T01:55:18;13.70;;;9.80;;
70970;SDS011;58632;51.718;19.446;2022-10-16T01:57:51;14.60;;;10.60;;
70970;SDS011;58632;51.718;19.446;2022-10-16T02:00:20;12.40;;;9.90;;
70970;SDS011;58632;51.718;19.446;2022-10-16T02:02:48;16.00;;;9.60;;
70970;SDS011;58632;51.718;19.446;2022-10-16T02:05:31;10.90;;;6.90;;
70970;SDS011;58632;51.718;19.446;2022-10-16T02:08:02;10.90;;;8.90;;
70970;SDS011;58632;51.718;19.446;2022-10-16T02:10:28;11.00;;;9.00;;
70970;SDS011;58632;51.718;19.446;2022-10-16T02:13:06;11.90;;;8.80;;
70970;SDS011;58632;51.718;19.446;2022-10-16T02:15:36;13.00;;;8.60;;
70970;SDS011;58632;51.718;19.446;2022-10-16T02:18:03;9.50;;;7.60;;
70970;SDS011;58632;51.718;19.446;2022-10-16T02:20:32;11.10;;;8.40;;
70970;SDS011;58632;51.718;19.446;2022-10-16T02:23:04;11.60;;;8.60;;
70970;SDS011;58632;51.718;19.446;2022-10-16T02:25:37;10.90;;;8.70;;
70970;SDS011;58632;51.718;19.446;2022-10-16T02:28:08;12.20;;;8.70;;
70970;SDS011;58632;51.718;19.446;2022-10-16T02:30:51;11.30;;;8.00;;
70970;SDS011;58632;51.718;19.446;2022-10-16T02:33:22;10.50;;;7.40;;
70970;SDS011;58632;51.718;19.446;2022-10-16T02:35:50;13.60;;;8.40;;
70970;SDS011;58632;51.718;19.446;2022-10-16T02:38:17;14.20;;;9.30;;
70970;SDS011;58632;51.718;19.446;2022-10-16T02:40:44;12.90;;;9.20;;
70970;SDS011;58632;51.718;19.446;2022-10-16T02:43:10;10.60;;;8.90;;
70970;SDS011;58632;51.718;19.446;2022-10-16T02:45:36;12.70;;;8.80;;
70970;SDS011;58632;51.718;19.446;2022-10-16T02:48:02;11.20;;;7.70;;
70970;SDS011;58632;51.718;19.446;2022-10-16T02:50:28;10.30;;;8.80;;
70970;SDS011;58632;51.718;19.446;2022-10-16T02:52:54;13.00;;;10.10;;
70970;SDS011;58632;51.718;19.446;2022-10-16T02:55:20;15.70;;;9.80;;
70970;SDS011;58632;51.718;19.446;2022-10-16T02:57:46;13.90;;;9.90;;
70970;SDS011;58632;51.718;19.446;2022-10-16T03:00:13;14.20;;;10.40;;
70970;SDS011;58632;51.718;19.446;2022-10-16T03:02:40;11.90;;;9.00;;
70970;SDS011;58632;51.718;19.446;2022-10-16T03:05:06;12.30;;;8.70;;
70970;SDS011;58632;51.718;19.446;2022-10-16T03:07:33;12.90;;;9.70;;
70970;SDS011;58632;51.718;19.446;2022-10-16T03:09:59;15.00;;;10.60;;
70970;SDS011;58632;51.718;19.446;2022-10-16T03:12:28;15.30;;;10.20;;
70970;SDS011;58632;51.718;19.446;2022-10-16T03:14:56;12.10;;;9.20;;
70970;SDS011;58632;51.718;19.446;2022-10-16T03:17:23;13.40;;;8.50;;
70970;SDS011;58632;51.718;19.446;2022-10-16T03:22:15;15.40;;;10.70;;
70970;SDS011;58632;51.718;19.446;2022-10-16T03:24:40;13.50;;;10.70;;
70970;SDS011;58632;51.718;19.446;2022-10-16T03:27:07;14.40;;;9.80;;
70970;SDS011;58632;51.718;19.446;2022-10-16T03:29:32;13.90;;;9.80;;
70970;SDS011;58632;51.718;19.446;2022-10-16T03:31:58;13.90;;;9.10;;
70970;SDS011;58632;51.718;19.446;2022-10-16T03:34:24;16.00;;;10.90;;
70970;SDS011;58632;51.718;19.446;2022-10-16T03:36:50;19.00;;;11.80;;
70970;SDS011;58632;51.718;19.446;2022-10-16T03:39:17;15.40;;;11.50;;
70970;SDS011;58632;51.718;19.446;2022-10-16T03:41:42;16.80;;;12.40;;
70970;SDS011;58632;51.718;19.446;2022-10-16T03:44:08;15.30;;;12.10;;
70970;SDS011;58632;51.718;19.446;2022-10-16T03:46:34;14.80;;;11.40;;
70970;SDS011;58632;51.718;19.446;2022-10-16T03:49:00;14.30;;;10.60;;
70970;SDS011;58632;51.718;19.446;2022-10-16T03:51:26;14.20;;;9.50;;
70970;SDS011;58632;51.718;19.446;2022-10-16T03:53:52;15.20;;;11.40;;
70970;SDS011;58632;51.718;19.446;2022-10-16T03:56:18;17.10;;;11.70;;
70970;SDS011;58632;51.718;19.446;2022-10-16T03:58:44;15.30;;;11.80;;
70970;SDS011;58632;51.718;19.446;2022-10-16T04:01:10;14.20;;;10.60;;
70970;SDS011;58632;51.718;19.446;2022-10-16T04:03:35;13.30;;;9.70;;
70970;SDS011;58632;51.718;19.446;2022-10-16T04:06:02;14.00;;;11.20;;
70970;SDS011;58632;51.718;19.446;2022-10-16T04:08:28;17.00;;;12.20;;
70970;SDS011;58632;51.718;19.446;2022-10-16T04:10:53;19.90;;;12.30;;
70970;SDS011;58632;51.718;19.446;2022-10-16T04:13:19;15.20;;;10.10;;
70970;SDS011;58632;51.718;19.446;2022-10-16T04:15:45;16.30;;;11.00;;
70970;SDS011;58632;51.718;19.446;2022-10-16T04:18:11;16.70;;;10.70;;
70970;SDS011;58632;51.718;19.446;2022-10-16T04:20:37;15.90;;;11.30;;
70970;SDS011;58632;51.718;19.446;2022-10-16T04:23:03;16.80;;;11.90;;
70970;SDS011;58632;51.718;19.446;2022-10-16T04:25:29;18.60;;;12.70;;
70970;SDS011;58632;51.718;19.446;2022-10-16T04:27:55;15.80;;;11.90;;
70970;SDS011;58632;51.718;19.446;2022-10-16T04:30:22;15.90;;;11.10;;
70970;SDS011;58632;51.718;19.446;2022-10-16T04:32:49;14.50;;;10.20;;
70970;SDS011;58632;51.718;19.446;2022-10-16T04:35:15;14.80;;;10.20;;
70970;SDS011;58632;51.718;19.446;2022-10-16T04:37:42;16.30;;;10.80;;
70970;SDS011;58632;51.718;19.446;2022-10-16T04:40:08;18.80;;;13.30;;
70970;SDS011;58632;51.718;19.446;2022-10-16T04:42:34;15.60;;;11.00;;
70970;SDS011;58632;51.718;19.446;2022-10-16T04:45:00;15.80;;;11.00;;
70970;SDS011;58632;51.718;19.446;2022-10-16T04:47:25;18.20;;;10.30;;
70970;SDS011;58632;51.718;19.446;2022-10-16T04:49:51;14.90;;;11.30;;
70970;SDS011;58632;51.718;19.446;2022-10-16T04:52:17;14.20;;;11.30;;
70970;SDS011;58632;51.718;19.446;2022-10-16T04:54:44;14.80;;;11.40;;
70970;SDS011;58632;51.718;19.446;2022-10-16T04:57:10;14.70;;;10.40;;
70970;SDS011;58632;51.718;19.446;2022-10-16T04:59:36;14.80;;;10.80;;
70970;SDS011;58632;51.718;19.446;2022-10-16T05:02:02;12.70;;;10.40;;
70970;SDS011;58632;51.718;19.446;2022-10-16T05:04:28;15.80;;;10.40;;
70970;SDS011;58632;51.718;19.446;2022-10-16T05:06:53;11.60;;;10.00;;
70970;SDS011;58632;51.718;19.446;2022-10-16T05:09:19;13.40;;;11.20;;
70970;SDS011;58632;51.718;19.446;2022-10-16T05:11:45;15.10;;;10.60;;
70970;SDS011;58632;51.718;19.446;2022-10-16T05:14:11;14.40;;;10.30;;
70970;SDS011;58632;51.718;19.446;2022-10-16T05:16:37;15.80;;;9.50;;
70970;SDS011;58632;51.718;19.446;2022-10-16T05:19:03;14.90;;;10.60;;
70970;SDS011;58632;51.718;19.446;2022-10-16T05:21:29;13.40;;;9.90;;
70970;SDS011;58632;51.718;19.446;2022-10-16T05:23:55;15.20;;;10.90;;
70970;SDS011;58632;51.718;19.446;2022-10-16T05:26:21;13.70;;;11.00;;
70970;SDS011;58632;51.718;19.446;2022-10-16T05:28:47;17.10;;;10.70;;
70970;SDS011;58632;51.718;19.446;2022-10-16T05:31:14;12.00;;;8.70;;
70970;SDS011;58632;51.718;19.446;2022-10-16T05:33:40;13.80;;;10.80;;
70970;SDS011;58632;51.718;19.446;2022-10-16T05:36:06;15.90;;;11.50;;
70970;SDS011;58632;51.718;19.446;2022-10-16T05:38:34;16.20;;;12.00;;
70970;SDS011;58632;51.718;19.446;2022-10-16T05:41:01;14.20;;;11.40;;
70970;SDS011;58632;51.718;19.446;2022-10-16T05:43:27;13.40;;;10.40;;
70970;SDS011;58632;51.718;19.446;2022-10-16T05:45:55;14.20;;;10.00;;
70970;SDS011;58632;51.718;19.446;2022-10-16T05:48:25;14.10;;;11.50;;
70970;SDS011;58632;51.718;19.446;2022-10-16T05:51:01;14.30;;;11.50;;
70970;SDS011;58632;51.718;19.446;2022-10-16T05:53:29;14.60;;;11.70;;
70970;SDS011;58632;51.718;19.446;2022-10-16T05:55:57;14.80;;;12.00;;
70970;SDS011;58632;51.718;19.446;2022-10-16T05:58:23;15.60;;;10.60;;
70970;SDS011;58632;51.718;19.446;2022-10-16T06:00:55;12.60;;;9.40;;
70970;SDS011;58632;51.718;19.446;2022-10-16T06:03:25;16.20;;;11.80;;
70970;SDS011;58632;51.718;19.446;2022-10-16T06:05:51;14.40;;;12.00;;
70970;SDS011;58632;51.718;19.446;2022-10-16T06:08:18;19.10;;;11.20;;
70970;SDS011;58632;51.718;19.446;2022-10-16T06:10:45;17.50;;;12.60;;
70970;SDS011;58632;51.718;19.446;2022-10-16T06:13:11;14.30;;;10.70;;
70970;SDS011;58632;51.718;19.446;2022-10-16T06:15:38;15.10;;;10.40;;
70970;SDS011;58632;51.718;19.446;2022-10-16T06:18:06;15.70;;;11.30;;
70970;SDS011;58632;51.718;19.446;2022-10-16T06:20:32;17.20;;;11.70;;
70970;SDS011;58632;51.718;19.446;2022-10-16T06:22:58;14.90;;;11.90;;
70970;SDS011;58632;51.718;19.446;2022-10-16T06:25:24;14.20;;;11.60;;
70970;SDS011;58632;51.718;19.446;2022-10-16T06:27:50;16.50;;;13.20;;
70970;SDS011;58632;51.718;19.446;2022-10-16T06:30:15;19.40;;;14.20;;
70970;SDS011;58632;51.718;19.446;2022-10-16T06:32:41;21.90;;;15.00;;
70970;SDS011;58632;51.718;19.446;2022-10-16T06:35:07;21.30;;;16.40;;
70970;SDS011;58632;51.718;19.446;2022-10-16T06:37:33;21.20;;;15.50;;
70970;SDS011;58632;51.718;19.446;2022-10-16T06:39:59;17.40;;;13.40;;
70970;SDS011;58632;51.718;19.446;2022-10-16T06:42:25;17.50;;;12.60;;
70970;SDS011;58632;51.718;19.446;2022-10-16T06:44:51;13.50;;;10.50;;
70970;SDS011;58632;51.718;19.446;2022-10-16T06:47:17;13.80;;;11.30;;
70970;SDS011;58632;51.718;19.446;2022-10-16T06:49:43;14.70;;;12.60;;
70970;SDS011;58632;51.718;19.446;2022-10-16T06:52:08;15.90;;;11.70;;
70970;SDS011;58632;51.718;19.446;2022-10-16T06:54:34;12.80;;;10.90;;
70970;SDS011;58632;51.718;19.446;2022-10-16T06:57:00;12.60;;;8.50;;
70970;SDS011;58632;51.718;19.446;2022-10-16T06:59:27;12.10;;;9.40;;
70970;SDS011;58632;51.718;19.446;2022-10-16T07:01:53;14.10;;;10.00;;
70970;SDS011;58632;51.718;19.446;2022-10-16T07:04:18;15.10;;;10.70;;
70970;SDS011;58632;51.718;19.446;2022-10-16T07:06:44;14.90;;;10.50;;
70970;SDS011;58632;51.718;19.446;2022-10-16T07:09:10;11.80;;;9.40;;
70970;SDS011;58632;51.718;19.446;2022-10-16T07:11:37;15.50;;;10.50;;
70970;SDS011;58632;51.718;19.446;2022-10-16T07:14:04;13.70;;;10.70;;
70970;SDS011;58632;51.718;19.446;2022-10-16T07:16:31;15.60;;;11.50;;
70970;SDS011;58632;51.718;19.446;2022-10-16T07:18:59;14.60;;;11.80;;
70970;SDS011;58632;51.718;19.446;2022-10-16T07:21:27;15.90;;;11.60;;
70970;SDS011;58632;51.718;19.446;2022-10-16T07:23:55;14.00;;;10.70;;
70970;SDS011;58632;51.718;19.446;2022-10-16T07:26:23;13.60;;;10.00;;
70970;SDS011;58632;51.718;19.446;2022-10-16T07:28:49;14.70;;;10.80;;
70970;SDS011;58632;51.718;19.446;2022-10-16T07:31:16;15.60;;;11.60;;
70970;SDS011;58632;51.718;19.446;2022-10-16T07:33:43;14.90;;;12.90;;
70970;SDS011;58632;51.718;19.446;2022-10-16T07:36:13;15.10;;;10.60;;
70970;SDS011;58632;51.718;19.446;2022-10-16T07:38:39;13.30;;;9.50;;
70970;SDS011;58632;51.718;19.446;2022-10-16T07:41:06;16.10;;;11.40;;
70970;SDS011;58632;51.718;19.446;2022-10-16T07:43:34;15.90;;;11.20;;
70970;SDS011;58632;51.718;19.446;2022-10-16T07:46:00;13.30;;;11.10;;
70970;SDS011;58632;51.718;19.446;2022-10-16T07:48:27;15.90;;;11.60;;
70970;SDS011;58632;51.718;19.446;2022-10-16T07:51:00;13.40;;;10.60;;
70970;SDS011;58632;51.718;19.446;2022-10-16T07:53:26;13.30;;;9.50;;
70970;SDS011;58632;51.718;19.446;2022-10-16T07:55:56;15.90;;;10.00;;
70970;SDS011;58632;51.718;19.446;2022-10-16T07:58:27;11.70;;;9.50;;
70970;SDS011;58632;51.718;19.446;2022-10-16T08:03:18;11.80;;;10.30;;
70970;SDS011;58632;51.718;19.446;2022-10-16T08:05:44;14.60;;;11.10;;
70970;SDS011;58632;51.718;19.446;2022-10-16T08:08:12;13.00;;;10.30;;
70970;SDS011;58632;51.718;19.446;2022-10-16T08:10:39;13.50;;;10.70;;
70970;SDS011;58632;51.718;19.446;2022-10-16T08:13:04;14.10;;;10.90;;
70970;SDS011;58632;51.718;19.446;2022-10-16T08:15:30;15.90;;;11.30;;
70970;SDS011;58632;51.718;19.446;2022-10-16T08:18:00;13.50;;;12.10;;
70970;SDS011;58632;51.718;19.446;2022-10-16T08:20:28;15.40;;;11.20;;
70970;SDS011;58632;51.718;19.446;2022-10-16T08:22:54;14.30;;;11.10;;
70970;SDS011;58632;51.718;19.446;2022-10-16T08:25:21;13.20;;;10.20;;
70970;SDS011;58632;51.718;19.446;2022-10-16T08:27:47;14.60;;;11.30;;
70970;SDS011;58632;51.718;19.446;2022-10-16T08:30:13;15.90;;;12.10;;
70970;SDS011;58632;51.718;19.446;2022-10-16T08:32:39;21.10;;;17.50;;
70970;SDS011;58632;51.718;19.446;2022-10-16T08:35:08;18.10;;;14.40;;
70970;SDS011;58632;51.718;19.446;2022-10-16T08:37:35;20.10;;;14.30;;
70970;SDS011;58632;51.718;19.446;2022-10-16T08:42:36;19.90;;;13.20;;
70970;SDS011;58632;51.718;19.446;2022-10-16T08:50:44;15.90;;;12.40;;
70970;SDS011;58632;51.718;19.446;2022-10-16T08:53:21;18.20;;;12.10;;
70970;SDS011;58632;51.718;19.446;2022-10-16T08:55:55;15.30;;;12.10;;
70970;SDS011;58632;51.718;19.446;2022-10-16T08:58:22;16.00;;;12.10;;
70970;SDS011;58632;51.718;19.446;2022-10-16T09:00:55;14.20;;;12.00;;
70970;SDS011;58632;51.718;19.446;2022-10-16T09:03:25;15.80;;;12.40;;
70970;SDS011;58632;51.718;19.446;2022-10-16T09:23:30;13.10;;;11.30;;
70970;SDS011;58632;51.718;19.446;2022-10-16T09:26:02;13.30;;;10.80;;
70970;SDS011;58632;51.718;19.446;2022-10-16T09:28:31;13.30;;;9.80;;
70970;SDS011;58632;51.718;19.446;2022-10-16T09:30:57;13.40;;;9.90;;
70970;SDS011;58632;51.718;19.446;2022-10-16T09:33:27;12.30;;;10.80;;
70970;SDS011;58632;51.718;19.446;2022-10-16T09:35:57;12.50;;;9.90;;
70970;SDS011;58632;51.718;19.446;2022-10-16T09:38:34;15.30;;;12.30;;
70970;SDS011;58632;51.718;19.446;2022-10-16T09:41:12;11.80;;;10.10;;
70970;SDS011;58632;51.718;19.446;2022-10-16T09:43:40;16.20;;;11.10;;
70970;SDS011;58632;51.718;19.446;2022-10-16T09:46:25;14.30;;;11.00;;
70970;SDS011;58632;51.718;19.446;2022-10-16T09:49:01;14.20;;;9.90;;
70970;SDS011;58632;51.718;19.446;2022-10-16T09:51:30;12.90;;;10.70;;
70970;SDS011;58632;51.718;19.446;2022-10-16T09:54:02;12.60;;;9.90;;
70970;SDS011;58632;51.718;19.446;2022-10-16T09:56:39;15.10;;;10.50;;
70970;SDS011;58632;51.718;19.446;2022-10-16T09:59:10;13.20;;;10.50;;
70970;SDS011;58632;51.718;19.446;2022-10-16T10:01:50;19.80;;;10.50;;
70970;SDS011;58632;51.718;19.446;2022-10-16T10:04:20;11.90;;;9.60;;
70970;SDS011;58632;51.718;19.446;2022-10-16T10:09:39;12.20;;;10.10;;
70970;SDS011;58632;51.718;19.446;2022-10-16T10:12:17;13.10;;;10.50;;
70970;SDS011;58632;51.718;19.446;2022-10-16T10:14:46;14.00;;;10.20;;
70970;SDS011;58632;51.718;19.446;2022-10-16T10:17:18;11.20;;;10.00;;
70970;SDS011;58632;51.718;19.446;2022-10-16T10:19:57;11.90;;;10.00;;
70970;SDS011;58632;51.718;19.446;2022-10-16T10:35:52;10.50;;;8.40;;
70970;SDS011;58632;51.718;19.446;2022-10-16T10:40:52;10.90;;;8.90;;
70970;SDS011;58632;51.718;19.446;2022-10-16T10:46:44;10.90;;;8.30;;
70970;SDS011;58632;51.718;19.446;2022-10-16T10:50:20;8.80;;;7.70;;
70970;SDS011;58632;51.718;19.446;2022-10-16T11:00:30;8.20;;;7.40;;
70970;SDS011;58632;51.718;19.446;2022-10-16T11:08:17;8.70;;;6.80;;
70970;SDS011;58632;51.718;19.446;2022-10-16T11:13:23;7.50;;;6.40;;
70970;SDS011;58632;51.718;19.446;2022-10-16T11:18:24;7.60;;;6.80;;
70970;SDS011;58632;51.718;19.446;2022-10-16T11:21:04;7.80;;;6.30;;
70970;SDS011;58632;51.718;19.446;2022-10-16T11:23:44;8.30;;;6.40;;
70970;SDS011;58632;51.718;19.446;2022-10-16T11:26:22;7.60;;;6.20;;
70970;SDS011;58632;51.718;19.446;2022-10-16T11:28:54;8.00;;;6.60;;
70970;SDS011;58632;51.718;19.446;2022-10-16T11:36:51;6.70;;;5.60;;
70970;SDS011;58632;51.718;19.446;2022-10-16T11:39:26;9.30;;;6.20;;
70970;SDS011;58632;51.718;19.446;2022-10-16T11:41:54;8.80;;;6.10;;
70970;SDS011;58632;51.718;19.446;2022-10-16T11:47:01;9.40;;;6.20;;
70970;SDS011;58632;51.718;19.446;2022-10-16T11:49:36;8.00;;;6.30;;
70970;SDS011;58632;51.718;19.446;2022-10-16T11:52:14;6.60;;;5.10;;
70970;SDS011;58632;51.718;19.446;2022-10-16T11:54:47;6.90;;;4.90;;
70970;SDS011;58632;51.718;19.446;2022-10-16T11:59:51;6.30;;;4.70;;
70970;SDS011;58632;51.718;19.446;2022-10-16T12:05:11;7.10;;;4.80;;
70970;SDS011;58632;51.718;19.446;2022-10-16T12:07:55;7.80;;;5.10;;
70970;SDS011;58632;51.718;19.446;2022-10-16T12:10:28;9.20;;;6.40;;
70970;SDS011;58632;51.718;19.446;2022-10-16T12:12:56;6.90;;;5.40;;
70970;SDS011;58632;51.718;19.446;2022-10-16T12:17:55;8.00;;;5.30;;
70970;SDS011;58632;51.718;19.446;2022-10-16T12:20:28;9.00;;;5.20;;
70970;SDS011;58632;51.718;19.446;2022-10-16T12:23:06;9.00;;;5.30;;
70970;SDS011;58632;51.718;19.446;2022-10-16T12:25:36;8.20;;;5.70;;
70970;SDS011;58632;51.718;19.446;2022-10-16T12:30:40;8.20;;;5.70;;
70970;SDS011;58632;51.718;19.446;2022-10-16T12:33:25;8.00;;;5.40;;
70970;SDS011;58632;51.718;19.446;2022-10-16T12:35:53;9.50;;;5.30;;
70970;SDS011;58632;51.718;19.446;2022-10-16T12:41:07;8.00;;;5.50;;
70970;SDS011;58632;51.718;19.446;2022-10-16T12:48:33;10.20;;;5.70;;
70970;SDS011;58632;51.718;19.446;2022-10-16T12:53:44;7.70;;;6.10;;
70970;SDS011;58632;51.718;19.446;2022-10-16T12:56:19;7.80;;;6.00;;
70970;SDS011;58632;51.718;19.446;2022-10-16T12:59:37;11.50;;;7.40;;
70970;SDS011;58632;51.718;19.446;2022-10-16T13:04:50;10.80;;;6.80;;
70970;SDS011;58632;51.718;19.446;2022-10-16T13:15:53;10.90;;;7.60;;
70970;SDS011;58632;51.718;19.446;2022-10-16T13:24:15;8.50;;;6.20;;
70970;SDS011;58632;51.718;19.446;2022-10-16T13:26:56;8.50;;;6.30;;
70970;SDS011;58632;51.718;19.446;2022-10-16T13:29:41;9.30;;;6.50;;
70970;SDS011;58632;51.718;19.446;2022-10-16T13:32:09;7.30;;;6.10;;
70970;SDS011;58632;51.718;19.446;2022-10-16T13:34:47;10.10;;;6.80;;
70970;SDS011;58632;51.718;19.446;2022-10-16T13:37:17;8.30;;;6.40;;
70970;SDS011;58632;51.718;19.446;2022-10-16T13:39:44;9.20;;;6.40;;
70970;SDS011;58632;51.718;19.446;2022-10-16T13:42:29;8.40;;;6.00;;
70970;SDS011;58632;51.718;19.446;2022-10-16T13:44:55;8.90;;;6.20;;
70970;SDS011;58632;51.718;19.446;2022-10-16T13:47:25;9.40;;;6.40;;
70970;SDS011;58632;51.718;19.446;2022-10-16T13:50:06;9.80;;;6.40;;
70970;SDS011;58632;51.718;19.446;2022-10-16T13:52:37;8.70;;;6.30;;
70970;SDS011;58632;51.718;19.446;2022-10-16T13:55:04;9.60;;;5.80;;
70970;SDS011;58632;51.718;19.446;2022-10-16T13:57:36;7.50;;;5.90;;
70970;SDS011;58632;51.718;19.446;2022-10-16T14:00:02;10.50;;;6.70;;
70970;SDS011;58632;51.718;19.446;2022-10-16T14:02:33;9.10;;;6.10;;
70970;SDS011;58632;51.718;19.446;2022-10-16T14:05:03;9.00;;;6.70;;
70970;SDS011;58632;51.718;19.446;2022-10-16T14:07:34;8.80;;;6.30;;
70970;SDS011;58632;51.718;19.446;2022-10-16T14:10:03;10.50;;;6.80;;
70970;SDS011;58632;51.718;19.446;2022-10-16T14:12:43;16.00;;;6.80;;
70970;SDS011;58632;51.718;19.446;2022-10-16T14:15:16;10.40;;;6.80;;
70970;SDS011;58632;51.718;19.446;2022-10-16T14:17:43;9.10;;;6.90;;
70970;SDS011;58632;51.718;19.446;2022-10-16T14:20:14;9.20;;;6.90;;
70970;SDS011;58632;51.718;19.446;2022-10-16T14:22:41;9.90;;;6.90;;
70970;SDS011;58632;51.718;19.446;2022-10-16T14:25:30;10.50;;;6.90;;
70970;SDS011;58632;51.718;19.446;2022-10-16T14:30:34;11.40;;;6.70;;
70970;SDS011;58632;51.718;19.446;2022-10-16T14:33:05;8.20;;;7.20;;
70970;SDS011;58632;51.718;19.446;2022-10-16T14:35:45;9.70;;;7.50;;
70970;SDS011;58632;51.718;19.446;2022-10-16T14:38:17;10.10;;;7.20;;
70970;SDS011;58632;51.718;19.446;2022-10-16T14:40:48;9.80;;;8.00;;
70970;SDS011;58632;51.718;19.446;2022-10-16T14:43:19;15.50;;;9.20;;
70970;SDS011;58632;51.718;19.446;2022-10-16T14:45:51;9.90;;;8.20;;
70970;SDS011;58632;51.718;19.446;2022-10-16T14:48:19;10.40;;;8.80;;
70970;SDS011;58632;51.718;19.446;2022-10-16T14:53:12;14.70;;;9.60;;
70970;SDS011;58632;51.718;19.446;2022-10-16T14:55:38;13.50;;;8.30;;
70970;SDS011;58632;51.718;19.446;2022-10-16T14:58:05;13.90;;;10.20;;
70970;SDS011;58632;51.718;19.446;2022-10-16T15:00:34;13.90;;;9.80;;
70970;SDS011;58632;51.718;19.446;2022-10-16T15:03:00;16.50;;;10.30;;
70970;SDS011;58632;51.718;19.446;2022-10-16T15:05:26;12.10;;;9.20;;
70970;SDS011;58632;51.718;19.446;2022-10-16T15:07:53;13.70;;;9.30;;
70970;SDS011;58632;51.718;19.446;2022-10-16T15:10:23;14.30;;;9.90;;
70970;SDS011;58632;51.718;19.446;2022-10-16T15:12:52;21.10;;;13.30;;
70970;SDS011;58632;51.718;19.446;2022-10-16T15:18:01;32.20;;;20.60;;
70970;SDS011;58632;51.718;19.446;2022-10-16T15:20:28;15.60;;;11.70;;
70970;SDS011;58632;51.718;19.446;2022-10-16T15:22:59;33.30;;;16.70;;
70970;SDS011;58632;51.718;19.446;2022-10-16T15:28:05;27.90;;;15.90;;
70970;SDS011;58632;51.718;19.446;2022-10-16T15:30:32;28.30;;;16.10;;
70970;SDS011;58632;51.718;19.446;2022-10-16T15:32:58;29.60;;;16.00;;
70970;SDS011;58632;51.718;19.446;2022-10-16T15:35:24;41.00;;;23.10;;
70970;SDS011;58632;51.718;19.446;2022-10-16T15:37:50;52.70;;;26.80;;
70970;SDS011;58632;51.718;19.446;2022-10-16T15:40:16;75.50;;;33.30;;
70970;SDS011;58632;51.718;19.446;2022-10-16T15:42:43;99.80;;;42.30;;
70970;SDS011;58632;51.718;19.446;2022-10-16T15:45:10;93.10;;;41.70;;
70970;SDS011;58632;51.718;19.446;2022-10-16T15:47:37;75.60;;;34.70;;
70970;SDS011;58632;51.718;19.446;2022-10-16T15:50:03;56.70;;;28.70;;
70970;SDS011;58632;51.718;19.446;2022-10-16T15:52:30;46.00;;;26.20;;
70970;SDS011;58632;51.718;19.446;2022-10-16T15:54:57;37.40;;;22.70;;
70970;SDS011;58632;51.718;19.446;2022-10-16T15:57:23;55.80;;;31.30;;
70970;SDS011;58632;51.718;19.446;2022-10-16T15:59:49;68.80;;;36.90;;
70970;SDS011;58632;51.718;19.446;2022-10-16T16:02:15;85.80;;;43.40;;
70970;SDS011;58632;51.718;19.446;2022-10-16T16:04:41;90.70;;;48.40;;
70970;SDS011;58632;51.718;19.446;2022-10-16T16:07:07;97.70;;;50.40;;
70970;SDS011;58632;51.718;19.446;2022-10-16T16:09:33;96.30;;;49.20;;
70970;SDS011;58632;51.718;19.446;2022-10-16T16:11:59;83.10;;;44.30;;
70970;SDS011;58632;51.718;19.446;2022-10-16T16:14:26;69.60;;;39.60;;
70970;SDS011;58632;51.718;19.446;2022-10-16T16:16:53;45.50;;;26.80;;
70970;SDS011;58632;51.718;19.446;2022-10-16T16:19:20;39.80;;;24.10;;
70970;SDS011;58632;51.718;19.446;2022-10-16T16:21:46;30.80;;;20.20;;
70970;SDS011;58632;51.718;19.446;2022-10-16T16:24:13;27.00;;;19.90;;
70970;SDS011;58632;51.718;19.446;2022-10-16T16:26:39;29.20;;;19.10;;
70970;SDS011;58632;51.718;19.446;2022-10-16T16:29:11;32.30;;;21.50;;
70970;SDS011;58632;51.718;19.446;2022-10-16T16:31:38;29.70;;;20.70;;
70970;SDS011;58632;51.718;19.446;2022-10-16T16:34:06;33.90;;;21.70;;
70970;SDS011;58632;51.718;19.446;2022-10-16T16:36:32;36.40;;;24.00;;
70970;SDS011;58632;51.718;19.446;2022-10-16T16:38:58;38.00;;;25.70;;
70970;SDS011;58632;51.718;19.446;2022-10-16T16:41:25;36.00;;;25.40;;
70970;SDS011;58632;51.718;19.446;2022-10-16T16:43:53;28.40;;;20.40;;
70970;SDS011;58632;51.718;19.446;2022-10-16T16:46:20;26.70;;;18.90;;
70970;SDS011;58632;51.718;19.446;2022-10-16T16:48:47;24.00;;;17.30;;
70970;SDS011;58632;51.718;19.446;2022-10-16T16:51:15;23.10;;;17.60;;